KBLU/BLU METAR and TAF weather

Enter ICAO airport designator
Station Type Date Time Source
KBLU METAR 2020/04/06 15:00 UTC NOAA

KBLU 061500Z AUTO 17003KT 1/2SM -SN FZFG VV004 M02/M03 A2975 RMK AO2 P0000 T10221033 $


Station Type Date Time Source
KBLU Decoded METAR 2020/04/06 15:00 UTC NOAA

BLUE CANYON AIRPORT, CA, United States (KBLU) 39-17N 120-42W 1609M
Apr 06, 2020 - 11:00 AM EDT / 2020.04.06 1500 UTC
Wind: from the S (170 degrees) at 3 MPH (3 KT):0
Visibility: 1/2 mile(s):0
Sky conditions: obscured
Weather: light snow; freezing fog
Precipitation last hour: A trace
Temperature: 28.0 F (-2.2 C)
Dew Point: 26.1 F (-3.3 C)
Relative Humidity: 92%
Pressure (altimeter): 29.75 in. Hg (1007 hPa)
ob: KBLU 061500Z AUTO 17003KT 1/2SM -SN FZFG VV004 M02/M03 A2975 RMK AO2 P0000 T10221033
cycle: 15

Station Type Date Time Source
KBLU TAF UTC NOAA

Error!

Example: see airport list